createdAt,value
2023-05-19T00:03:00.456Z,216.05
2023-05-19T00:06:10.630Z,255.35
2023-05-19T00:09:19.140Z,259.80
2023-05-19T00:12:27.526Z,326.00
2023-05-19T00:15:36.412Z,886.45
2023-05-19T00:18:44.606Z,709.35
2023-05-19T00:21:53.988Z,949.72
2023-05-19T00:25:02.051Z,898.28
2023-05-19T00:28:10.207Z,786.38
2023-05-19T00:31:18.150Z,8.45
2023-05-19T00:34:26.040Z,7.03
2023-05-19T00:37:35.366Z,3.95
2023-05-19T00:40:43.193Z,3.63
2023-05-19T00:43:51.262Z,3.60
2023-05-19T00:46:59.563Z,3.42
2023-05-19T00:50:08.797Z,4.32
2023-05-19T00:53:18.750Z,20.48
2023-05-19T00:56:26.689Z,9.57
2023-05-19T00:59:34.644Z,3.72
2023-05-19T01:02:42.779Z,3.13
2023-05-19T01:05:53.628Z,3.35
2023-05-19T01:09:03.779Z,11.65
2023-05-19T01:12:11.972Z,2.90
2023-05-19T01:15:20.449Z,3.25
2023-05-19T01:18:33.439Z,3.35
2023-05-19T01:21:52.442Z,3.33
2023-05-19T01:25:34.218Z,5.15
2023-05-19T01:29:00.013Z,8.07
2023-05-19T01:32:09.542Z,2.92
2023-05-19T01:35:17.396Z,5.15
2023-05-19T01:38:25.149Z,3.00
2023-05-19T01:41:34.164Z,2.75
2023-05-19T01:44:42.092Z,2.80
2023-05-19T01:47:55.814Z,2.85
2023-05-19T01:51:03.626Z,2.22
2023-05-19T01:54:11.356Z,2.75
2023-05-19T01:57:22.815Z,2.67
2023-05-19T02:00:35.565Z,2.70
2023-05-19T02:04:01.314Z,2.50
2023-05-19T02:07:13.684Z,2.92
2023-05-19T02:10:27.496Z,3.25
2023-05-19T02:13:37.821Z,2.60
2023-05-19T02:16:47.230Z,2.75
2023-05-19T02:19:56.726Z,2.83
2023-05-19T02:23:04.672Z,2.90
2023-05-19T02:26:12.481Z,3.58
2023-05-19T02:29:20.458Z,2.65
2023-05-19T02:32:28.721Z,2.80
2023-05-19T02:35:37.917Z,2.65
2023-05-19T02:38:45.802Z,2.78
2023-05-19T02:41:53.960Z,2.58
2023-05-19T02:45:02.684Z,2.67
2023-05-19T02:48:10.880Z,3.33
2023-05-19T02:51:20.212Z,2.78
2023-05-19T02:54:28.068Z,2.05
2023-05-19T02:57:36.255Z,2.58
2023-05-19T03:00:45.216Z,2.72
2023-05-19T03:03:53.558Z,2.45
2023-05-19T03:07:03.271Z,2.25
2023-05-19T03:10:11.482Z,2.47
2023-05-19T03:13:19.416Z,2.53
2023-05-19T03:16:28.135Z,2.95
2023-05-19T03:19:36.448Z,2.40
2023-05-19T03:22:45.651Z,2.17
2023-05-19T03:25:56.001Z,2.17
2023-05-19T03:29:04.426Z,2.20
2023-05-19T03:32:16.567Z,2.57
2023-05-19T03:35:24.681Z,2.30
2023-05-19T03:38:33.902Z,2.13
2023-05-19T03:41:42.327Z,2.42
2023-05-19T03:44:50.658Z,2.20
2023-05-19T03:47:58.749Z,2.30
2023-05-19T03:51:30.024Z,2.60
2023-05-19T03:54:46.114Z,4.35
2023-05-19T03:57:54.281Z,2.67
2023-05-19T04:01:02.079Z,2.20
2023-05-19T04:04:10.044Z,2.53
2023-05-19T04:07:17.890Z,2.20
2023-05-19T04:10:27.166Z,2.25
2023-05-19T04:13:36.256Z,2.30
2023-05-19T04:16:44.203Z,2.17
2023-05-19T04:19:52.357Z,2.50
2023-05-19T04:23:00.244Z,2.35
2023-05-19T04:26:09.445Z,2.33
2023-05-19T04:29:17.900Z,2.63
2023-05-19T04:32:25.987Z,2.22
2023-05-19T04:35:35.412Z,2.22
2023-05-19T04:38:43.469Z,2.53
2023-05-19T04:41:54.702Z,2.22
2023-05-19T04:45:03.743Z,2.00
2023-05-19T04:48:13.920Z,2.53
2023-05-19T04:51:21.877Z,2.33
2023-05-19T04:54:30.545Z,1.90
2023-05-19T04:57:40.460Z,2.10
2023-05-19T05:00:49.054Z,2.38
2023-05-19T05:03:59.075Z,1.83
2023-05-19T05:07:07.711Z,2.17
2023-05-19T05:10:16.108Z,2.20
2023-05-19T05:13:26.048Z,1.60
2023-05-19T05:16:36.284Z,1.98
2023-05-19T05:19:44.986Z,1.95
2023-05-19T05:22:54.181Z,1.92
2023-05-19T05:26:04.452Z,1.75
2023-05-19T05:29:14.367Z,1.83
2023-05-19T05:32:23.598Z,2.40
2023-05-19T05:35:32.264Z,2.03
2023-05-19T05:38:40.337Z,2.70
2023-05-19T05:41:48.856Z,2.17
2023-05-19T05:44:59.339Z,2.42
2023-05-19T05:48:08.675Z,2.58
2023-05-19T05:51:17.207Z,2.22
2023-05-19T05:54:26.023Z,2.53
2023-05-19T05:57:36.485Z,2.08
2023-05-19T06:00:48.648Z,1.95
2023-05-19T06:03:56.979Z,2.28
2023-05-19T06:07:06.163Z,2.17
2023-05-19T06:10:17.926Z,2.33
2023-05-19T06:13:26.426Z,2.15
2023-05-19T06:16:36.408Z,2.88
2023-05-19T06:19:44.500Z,2.67
2023-05-19T06:22:52.615Z,1.85
2023-05-19T06:26:02.472Z,2.25
2023-05-19T06:29:12.043Z,2.10
2023-05-19T06:32:21.571Z,1.98
2023-05-19T06:35:30.299Z,1.80
2023-05-19T06:38:38.672Z,1.80
2023-05-19T06:41:47.731Z,2.03
2023-05-19T06:45:09.911Z,2.38
2023-05-19T06:48:20.977Z,2.45
2023-05-19T06:51:29.524Z,2.25
2023-05-19T06:54:38.304Z,1.90
2023-05-19T06:57:46.718Z,2.15
2023-05-19T07:00:55.473Z,3.90
2023-05-19T07:04:08.401Z,2.25
2023-05-19T07:07:16.642Z,3.17
2023-05-19T07:10:25.388Z,3.03
2023-05-19T07:13:34.783Z,2.60
2023-05-19T07:16:42.914Z,2.70
2023-05-19T07:19:52.219Z,6.28
2023-05-19T07:22:59.953Z,2.78
2023-05-19T07:26:07.924Z,2.70
2023-05-19T07:29:15.890Z,2.95
2023-05-19T07:32:23.918Z,14.27
2023-05-19T07:35:33.404Z,49.30
2023-05-19T07:38:41.290Z,6.05
2023-05-19T07:41:52.642Z,4.13
2023-05-19T07:45:01.140Z,3.45
2023-05-19T07:48:09.306Z,3.03
2023-05-19T07:51:19.372Z,3.28
2023-05-19T07:54:27.644Z,2.70
2023-05-19T07:57:35.512Z,17.60
2023-05-19T08:00:43.671Z,7.40
2023-05-19T08:03:51.990Z,13.52
2023-05-19T08:07:01.463Z,2.85
2023-05-19T08:10:09.910Z,2.90
2023-05-19T08:13:17.842Z,44.63
2023-05-19T08:16:25.987Z,2.17
2023-05-19T08:19:33.915Z,4.28
2023-05-19T08:22:43.172Z,2.60
2023-05-19T08:25:51.059Z,2.97
2023-05-19T08:28:59.048Z,4.38
2023-05-19T08:32:07.296Z,54.72
2023-05-19T08:35:15.395Z,156.90
2023-05-19T08:38:24.983Z,82.78
2023-05-19T08:41:33.491Z,20.23
2023-05-19T08:44:43.841Z,22.92
2023-05-19T08:47:52.557Z,2.50
2023-05-19T08:51:05.374Z,31.88
2023-05-19T08:54:16.145Z,4.20
2023-05-19T08:57:24.579Z,2.95
2023-05-19T09:00:33.259Z,2.63
2023-05-19T09:03:42.983Z,2.92
2023-05-19T09:06:51.538Z,2.55
2023-05-19T09:10:01.182Z,18.70
2023-05-19T09:13:09.425Z,2.97
2023-05-19T09:16:17.817Z,4.68
2023-05-19T09:19:25.985Z,3.05
2023-05-19T09:22:36.320Z,3.22
2023-05-19T09:25:52.381Z,5.68
2023-05-19T09:29:00.669Z,38.00
2023-05-19T09:32:08.584Z,3.15
2023-05-19T09:35:17.192Z,2.83
2023-05-19T09:38:25.931Z,2.97
2023-05-19T09:41:35.633Z,3.58
2023-05-19T09:44:43.939Z,3.47
2023-05-19T09:47:52.241Z,3.13
2023-05-19T09:51:01.683Z,3.28
2023-05-19T09:54:10.249Z,2.55
2023-05-19T09:57:19.507Z,2.72
2023-05-19T10:00:28.149Z,2.30
2023-05-19T10:03:36.864Z,2.40
2023-05-19T10:06:45.076Z,2.92
2023-05-19T10:09:53.294Z,2.55
2023-05-19T10:13:04.110Z,2.90
2023-05-19T10:16:11.975Z,3.03
2023-05-19T10:19:21.510Z,2.63
2023-05-19T10:22:29.566Z,2.95
2023-05-19T10:25:37.511Z,3.00
2023-05-19T10:28:46.640Z,3.03
2023-05-19T10:31:54.948Z,3.50
2023-05-19T10:35:32.630Z,3.05
2023-05-19T10:38:43.182Z,2.92
2023-05-19T10:41:56.292Z,2.97
2023-05-19T10:45:09.713Z,4.03
2023-05-19T10:48:17.888Z,2.90
2023-05-19T10:51:31.389Z,3.42
2023-05-19T10:54:45.985Z,3.72
2023-05-19T10:57:57.681Z,3.90
2023-05-19T11:01:10.545Z,3.87
2023-05-19T11:04:19.089Z,3.35
2023-05-19T11:07:27.258Z,3.17
2023-05-19T11:10:35.174Z,3.03
2023-05-19T11:13:44.708Z,3.00
2023-05-19T11:16:54.661Z,2.97
2023-05-19T11:20:03.758Z,5.30
2023-05-19T11:23:12.039Z,41.55
2023-05-19T11:26:44.117Z,2.85
2023-05-19T11:29:52.301Z,9.68
2023-05-19T11:33:01.793Z,9.98
2023-05-19T11:36:09.926Z,3.25
2023-05-19T11:39:18.113Z,3.70
2023-05-19T11:42:25.882Z,3.20
2023-05-19T11:45:34.291Z,3.92
2023-05-19T11:48:43.748Z,3.70
2023-05-19T11:51:51.887Z,2.75
2023-05-19T11:55:01.685Z,3.80
2023-05-19T11:58:09.492Z,4.03
2023-05-19T12:01:17.734Z,3.40
2023-05-19T12:04:27.245Z,3.35
2023-05-19T12:07:35.165Z,3.63
2023-05-19T12:10:43.054Z,3.13
2023-05-19T12:13:54.533Z,3.00
2023-05-19T12:17:11.585Z,3.50
2023-05-19T12:20:21.014Z,3.70
2023-05-19T12:23:30.680Z,2.88
2023-05-19T12:26:38.740Z,3.22
2023-05-19T12:29:50.714Z,3.28
2023-05-19T12:32:58.858Z,2.47
2023-05-19T12:36:09.065Z,3.75
2023-05-19T12:39:18.461Z,3.35
2023-05-19T12:42:31.058Z,2.92
2023-05-19T12:45:39.302Z,2.85
2023-05-19T12:48:47.352Z,2.95
2023-05-19T12:51:56.818Z,2.85
2023-05-19T12:55:06.955Z,2.67
2023-05-19T12:58:16.972Z,2.67
2023-05-19T13:01:25.186Z,3.25
2023-05-19T13:04:33.346Z,2.80
2023-05-19T13:07:42.588Z,3.08
2023-05-19T13:10:50.680Z,2.80
2023-05-19T13:13:58.544Z,2.72
2023-05-19T13:17:06.843Z,2.88
2023-05-19T13:20:15.046Z,2.78
2023-05-19T13:23:24.632Z,2.50
2023-05-19T13:26:32.552Z,2.25
2023-05-19T13:29:40.373Z,2.30
2023-05-19T13:32:48.237Z,2.55
2023-05-19T13:35:56.669Z,2.05
2023-05-19T13:39:05.815Z,2.60
2023-05-19T13:42:13.777Z,2.13
2023-05-19T13:45:21.556Z,2.25
2023-05-19T13:48:29.406Z,2.28
2023-05-19T13:51:37.585Z,2.15
2023-05-19T13:54:47.342Z,2.42
2023-05-19T13:57:55.543Z,2.70
2023-05-19T14:01:03.652Z,4.40
2023-05-19T14:04:12.021Z,2.53
2023-05-19T14:07:21.244Z,3.08
2023-05-19T14:10:11.694Z,2.70
2023-05-19T14:15:50.821Z,2.70
2023-05-19T14:18:38.787Z,2.30
2023-05-19T14:21:27.070Z,2.50
2023-05-19T14:24:14.908Z,2.78
2023-05-19T14:27:04.541Z,2.55
2023-05-19T14:29:52.850Z,2.45
2023-05-19T14:32:41.283Z,2.25
2023-05-19T14:35:29.164Z,3.55
2023-05-19T14:38:16.772Z,2.20
2023-05-19T14:41:05.332Z,4.00
2023-05-19T14:43:54.385Z,2.45
2023-05-19T14:46:42.173Z,2.42
2023-05-19T14:49:30.027Z,2.50
2023-05-19T14:52:18.680Z,2.97
2023-05-19T14:55:07.049Z,2.13
2023-05-19T14:57:54.653Z,1.98
2023-05-19T15:00:44.203Z,2.08
2023-05-19T15:03:32.045Z,2.03
2023-05-19T15:06:20.307Z,1.75
2023-05-19T15:09:08.072Z,1.80
2023-05-19T15:11:56.183Z,2.08
2023-05-19T15:14:43.894Z,1.90
2023-05-19T15:17:33.540Z,2.40
2023-05-19T15:20:21.372Z,2.28
2023-05-19T15:23:09.111Z,2.30
2023-05-19T15:25:57.200Z,1.67
2023-05-19T15:28:45.042Z,2.00
2023-05-19T15:31:53.232Z,1.90
2023-05-19T15:35:02.573Z,1.80
2023-05-19T15:38:10.946Z,1.67
2023-05-19T15:41:19.306Z,1.75
2023-05-19T15:44:29.016Z,1.67
2023-05-19T15:47:37.106Z,1.63
2023-05-19T15:50:46.350Z,1.65
2023-05-19T15:53:54.381Z,1.80
2023-05-19T15:57:02.107Z,1.60
2023-05-19T16:00:11.492Z,1.80
2023-05-19T16:03:19.799Z,1.92
2023-05-19T16:06:29.304Z,1.80
2023-05-19T16:09:37.222Z,1.90
2023-05-19T16:12:45.442Z,2.05
2023-05-19T16:15:53.555Z,1.98
2023-05-19T16:19:01.799Z,1.50
2023-05-19T16:22:11.104Z,1.40
2023-05-19T16:25:19.561Z,1.52
2023-05-19T16:28:27.931Z,1.60
2023-05-19T16:31:36.229Z,1.35
2023-05-19T16:34:44.440Z,1.38
2023-05-19T16:37:53.775Z,1.40
2023-05-19T16:41:03.625Z,1.67
2023-05-19T16:44:14.411Z,1.48
2023-05-19T16:47:22.747Z,6.32
2023-05-19T16:50:30.627Z,1.70
2023-05-19T16:53:41.153Z,1.80
2023-05-19T16:56:49.361Z,1.58
2023-05-19T16:59:57.361Z,1.80
2023-05-19T17:03:05.648Z,1.60
2023-05-19T17:06:13.681Z,1.60
2023-05-19T17:09:25.250Z,1.55
2023-05-19T17:12:33.074Z,1.48
2023-05-19T17:15:42.998Z,1.50
2023-05-19T17:18:51.586Z,1.45
2023-05-19T17:21:59.513Z,1.60
2023-05-19T17:25:10.066Z,1.30
2023-05-19T17:28:18.059Z,1.60
2023-05-19T17:31:26.161Z,1.20
2023-05-19T17:34:34.035Z,1.00
2023-05-19T17:37:41.890Z,1.50
2023-05-19T17:40:51.333Z,1.63
2023-05-19T17:43:59.158Z,1.15
2023-05-19T17:47:08.102Z,1.90
2023-05-19T17:50:16.611Z,1.05
2023-05-19T17:53:25.070Z,1.73
2023-05-19T17:56:34.751Z,1.77
2023-05-19T17:59:43.101Z,0.90
2023-05-19T18:02:51.978Z,1.58
2023-05-19T18:06:00.204Z,0.90
2023-05-19T18:09:09.165Z,17.95
2023-05-19T18:12:18.347Z,1.60
2023-05-19T18:15:26.425Z,1.60
2023-05-19T18:18:37.229Z,0.98
2023-05-19T18:21:45.022Z,1.20
2023-05-19T18:24:53.033Z,1.20
2023-05-19T18:28:02.237Z,1.17
2023-05-19T18:31:15.568Z,1.05
2023-05-19T18:34:23.723Z,1.38
2023-05-19T18:37:31.881Z,1.40
2023-05-19T18:40:40.240Z,1.23
2023-05-19T18:43:49.761Z,1.23
2023-05-19T18:46:57.602Z,1.00
2023-05-19T18:50:06.984Z,1.23
2023-05-19T18:53:15.370Z,1.30
2023-05-19T18:56:26.428Z,1.33
2023-05-19T18:59:35.561Z,1.42
2023-05-19T19:02:43.351Z,1.33
2023-05-19T19:05:55.205Z,1.58
2023-05-19T19:09:03.420Z,1.50
2023-05-19T19:12:11.472Z,1.88
2023-05-19T19:15:21.104Z,1.58
2023-05-19T19:18:29.403Z,2.33
2023-05-19T19:21:37.747Z,2.03
2023-05-19T19:24:46.065Z,3.22
2023-05-19T19:27:54.003Z,2.60
2023-05-19T19:31:03.612Z,2.50
2023-05-19T19:34:11.637Z,2.20
2023-05-19T19:37:19.856Z,3.35
2023-05-19T19:40:29.200Z,2.47
2023-05-19T19:43:37.461Z,2.92
2023-05-19T19:46:46.816Z,2.55
2023-05-19T19:49:55.971Z,2.20
2023-05-19T19:53:03.888Z,2.25
2023-05-19T19:56:11.886Z,2.80
2023-05-19T19:59:20.016Z,2.47
2023-05-19T20:02:29.558Z,2.00
2023-05-19T20:05:39.416Z,2.83
2023-05-19T20:08:47.307Z,3.38
2023-05-19T20:11:55.463Z,2.22
2023-05-19T20:15:03.558Z,2.00
2023-05-19T20:18:12.961Z,6.07
2023-05-19T20:21:21.061Z,2.85
2023-05-19T20:24:28.925Z,2.55
2023-05-19T20:27:37.654Z,1.70
2023-05-19T20:30:45.459Z,2.22
2023-05-19T20:33:54.622Z,3.22
2023-05-19T20:37:02.306Z,1.50
2023-05-19T20:40:11.151Z,2.50
2023-05-19T20:43:19.330Z,2.13
2023-05-19T20:46:27.813Z,2.35
2023-05-19T20:49:37.141Z,2.50
2023-05-19T20:52:45.401Z,1.80
2023-05-19T20:55:53.629Z,1.67
2023-05-19T20:59:01.680Z,1.90
2023-05-19T21:02:09.644Z,1.92
2023-05-19T21:05:19.076Z,1.88
2023-05-19T21:08:27.001Z,1.63
2023-05-19T21:11:34.887Z,2.60
2023-05-19T21:14:42.791Z,1.88
2023-05-19T21:17:50.847Z,2.00
2023-05-19T21:21:02.376Z,1.77
2023-05-19T21:24:12.689Z,1.50
2023-05-19T21:27:20.514Z,2.72
2023-05-19T21:30:28.653Z,1.50
2023-05-19T21:33:36.833Z,294.27
2023-05-19T21:36:47.168Z,1.48
2023-05-19T21:39:56.327Z,1.75
2023-05-19T21:43:05.808Z,139.35
2023-05-19T21:46:13.825Z,388.50
2023-05-19T21:49:21.752Z,1.95
2023-05-19T21:52:31.318Z,1.45
2023-05-19T21:55:39.363Z,3.08
2023-05-19T21:58:47.173Z,2.55
2023-05-19T22:01:55.205Z,2.90
2023-05-19T22:05:03.215Z,2.50
2023-05-19T22:08:12.351Z,1.65
2023-05-19T22:11:21.400Z,2.15
2023-05-19T22:14:29.464Z,1.98
2023-05-19T22:17:37.397Z,2.30
2023-05-19T22:20:45.364Z,2.10
2023-05-19T22:23:54.920Z,510.05
2023-05-19T22:27:03.152Z,12.68
2023-05-19T22:30:11.421Z,11.73
2023-05-19T22:33:19.655Z,12.48
2023-05-19T22:36:27.419Z,10.20
2023-05-19T22:39:37.021Z,7.20
2023-05-19T22:42:44.840Z,7.10
2023-05-19T22:45:53.334Z,6.50
2023-05-19T22:49:01.226Z,7.35
2023-05-19T22:52:10.687Z,7.68
2023-05-19T22:55:20.448Z,5.93
2023-05-19T22:58:28.829Z,6.25
2023-05-19T23:01:36.716Z,5.35
2023-05-19T23:04:44.720Z,4.82
2023-05-19T23:07:52.979Z,4.85
2023-05-19T23:11:02.550Z,5.05
2023-05-19T23:14:10.806Z,5.20
2023-05-19T23:17:18.778Z,3.75
2023-05-19T23:20:26.633Z,4.65
2023-05-19T23:23:35.871Z,3.58
2023-05-19T23:26:45.147Z,4.00
2023-05-19T23:29:54.152Z,4.03
2023-05-19T23:33:02.288Z,3.25
2023-05-19T23:36:11.357Z,3.72
2023-05-19T23:39:19.544Z,3.92
2023-05-19T23:42:28.691Z,3.17
2023-05-19T23:45:36.647Z,3.63
2023-05-19T23:48:44.759Z,3.47
2023-05-19T23:51:52.744Z,2.90
2023-05-19T23:55:00.794Z,2.97
2023-05-19T23:58:10.149Z,3.13
